Aérodrome :
LOGIN :

S'inscrire | Disclaimer

   EN    FR    IT 

 










Légende :    VFR   VFR Marginal   IFR   IFR Intensif   IFR Très Intensif
Visi : 
Plafond : 
>= 8 km
>= 3000ft
5 à 8 km
1000 à 3000 ft
1500m à 5 km
500 à 1000 ft
800 à 1500m
200 à 500 ft
< 800m
< 200 ft
Symboles :   Orages  Brouillard  Fortes neiges  Fortes précipitations  Vent > 20 kt
SIGMETs :   Divers  Orages  Givrage  Turbulence  Onde Orograph.  Cendres Volcan.






- Altitude de l'aérodrome : 26 ft
- Code IATA : BIA


LFKB - Bastia

DERNIER METAR :
  • 122000Z AUTO 19004KT 160V230 CAVOK 20/17 Q1018 NOSIG

METARs EXPIRÉS :
  • 121930Z AUTO 19004KT CAVOK 21/18 Q1018 NOSIG
  • 121900Z AUTO 13004KT CAVOK 22/18 Q1018 NOSIG
  • 121830Z AUTO 15003KT 080V190 CAVOK 24/18 Q1018 NOSIG
  • 121800Z AUTO 12004KT CAVOK 25/18 Q1018 TEMPO 04010KT
  • 121730Z AUTO 02003KT 330V090 CAVOK 26/18 Q1018 NOSIG

TAF TAF LFKB
Valide du 12 à 15h jusqu'au 13 à 15h UTC


121400Z 1215/1315 04010KT CAVOK TX29/1215Z TN18/1303Z
BECMG 1219/1221 VRB03KT
BECMG 1310/1312 05010KT
ATIS : +33 4 95 59 19 40



MET'MAP, la Météo Aéronautique d'un coup d'oeil ! - Copyright ORBIFLY Décembre 2007 - Disclaimer

ORBIFLY MET'MAP TEAM :

Programmation & Développement : Alexandra Zaïnal
Sur une idée originale de : Baudouin d'Aumeries
Assistance à la programmation : Marc-Olivier Méhu
Soutien technique & logistique : Manuel Goepfert

Contact : metmap@orbifly.com




SOURCES & CREDITS :

   NOAA